Time;durP1;ratioP1;P1;durP2;ratioP2;P2;SDS_P1;SDS_P2;PMS_P1;PMS_P2;Temp;Humidity;BMP_temperature;BMP_pressure;BME280_temperature;BME280_humidity;BME280_pressure;Samples;Min_cycle;Max_cycle;Signal;HPM_P1;HPM_P2
2022/06/26 00:01:43;;;;;;;9.13;3.75;;;;;;;17.06;100.00;99930.42;1742208;82;21222;-79
2022/06/26 00:04:53;;;;;;;7.15;3.60;;;;;;;17.06;100.00;99935.95;1742261;82;21207;-79
2022/06/26 00:07:59;;;;;;;11.65;3.83;;;;;;;17.04;100.00;99940.87;1743570;82;21180;-77
2022/06/26 00:11:06;;;;;;;10.48;4.40;;;;;;;17.05;100.00;99952.22;1743677;82;21768;-78
2022/06/26 00:14:12;;;;;;;11.05;4.20;;;;;;;17.04;100.00;99952.46;1743613;82;21205;-78
2022/06/26 00:17:18;;;;;;;8.55;3.95;;;;;;;17.05;100.00;99956.91;1743716;82;21178;-79
2022/06/26 00:20:23;;;;;;;16.77;4.60;;;;;;;17.06;100.00;99952.52;1743643;82;21170;-79
2022/06/26 00:23:28;;;;;;;11.97;4.17;;;;;;;17.09;100.00;99948.48;1742509;82;21226;-79
2022/06/26 00:26:27;;;;;;;13.65;4.12;;;;;;;17.11;100.00;99949.08;1743610;82;21250;-79
2022/06/26 00:29:19;;;;;;;14.78;4.62;;;;;;;17.13;100.00;99941.97;1743606;82;21245;-79
2022/06/26 00:32:06;;;;;;;13.05;4.20;;;;;;;17.17;100.00;99947.31;1743513;82;21209;-79
2022/06/26 00:35:12;;;;;;;11.97;4.58;;;;;;;17.18;100.00;99937.98;1743637;82;21213;-77
2022/06/26 00:38:17;;;;;;;8.18;3.50;;;;;;;17.18;100.00;99936.59;1743707;82;21190;-78
2022/06/26 00:41:23;;;;;;;11.12;3.80;;;;;;;17.18;100.00;99935.22;1743652;82;21174;-78
2022/06/26 00:44:30;;;;;;;7.25;4.12;;;;;;;17.19;100.00;99932.21;1738669;82;21225;-78
2022/06/26 00:47:35;;;;;;;7.62;4.05;;;;;;;17.20;100.00;99934.44;1741956;82;21218;-78
2022/06/26 00:50:41;;;;;;;9.20;4.03;;;;;;;17.22;100.00;99937.30;1741966;82;21202;-78
2022/06/26 00:53:48;;;;;;;10.20;3.37;;;;;;;17.20;100.00;99942.73;1722956;82;21206;-79
2022/06/26 00:56:54;;;;;;;9.28;3.60;;;;;;;17.20;100.00;99941.34;1741944;82;21241;-79
2022/06/26 01:00:00;;;;;;;14.93;3.55;;;;;;;17.22;100.00;99950.23;1741890;82;21764;-79
2022/06/26 01:03:07;;;;;;;8.33;3.40;;;;;;;17.20;100.00;99946.88;1719877;82;21787;-79
2022/06/26 01:06:13;;;;;;;12.35;3.50;;;;;;;17.18;100.00;99937.98;1741817;82;21245;-79
2022/06/26 01:09:20;;;;;;;7.75;3.25;;;;;;;17.19;100.00;99947.41;1724134;82;21253;-79
2022/06/26 01:12:26;;;;;;;11.25;3.67;;;;;;;17.17;100.00;99952.30;1740534;82;21198;-79
2022/06/26 01:15:32;;;;;;;8.55;4.05;;;;;;;17.10;100.00;99956.53;1740589;82;21201;-79
2022/06/26 01:18:38;;;;;;;12.13;3.90;;;;;;;17.08;100.00;99955.08;1741792;82;21300;-78
2022/06/26 01:21:46;;;;;;;8.15;3.45;;;;;;;17.05;100.00;99948.08;1721543;82;21198;-78
2022/06/26 01:24:51;;;;;;;7.55;3.35;;;;;;;17.05;100.00;99943.09;1741791;81;21297;-78
2022/06/26 01:27:51;;;;;;;10.20;3.60;;;;;;;17.02;100.00;99945.76;1742028;82;21241;-78
2022/06/26 01:30:44;;;;;;;8.50;3.70;;;;;;;16.99;100.00;99949.53;1741849;82;21190;-78
2022/06/26 01:33:31;;;;;;;10.80;3.90;;;;;;;16.98;100.00;99951.42;1741371;82;21182;-78
2022/06/26 01:36:24;;;;;;;8.18;4.05;;;;;;;16.98;100.00;99943.67;1742006;82;21230;-78
2022/06/26 01:39:29;;;;;;;12.00;3.75;;;;;;;16.95;100.00;99933.94;1740484;82;21732;-78
2022/06/26 01:42:36;;;;;;;8.15;4.00;;;;;;;16.96;100.00;99949.44;1741774;82;21242;-78
2022/06/26 01:45:41;;;;;;;8.00;3.58;;;;;;;16.94;100.00;99952.98;1740275;82;21241;-78
2022/06/26 01:48:53;;;;;;;10.15;3.35;;;;;;;16.95;100.00;99946.91;1742390;82;21202;-78
2022/06/26 01:52:00;;;;;;;7.90;4.12;;;;;;;16.93;100.00;99936.61;1743686;82;21222;-78
2022/06/26 01:55:07;;;;;;;8.05;3.27;;;;;;;16.89;100.00;99936.75;1742408;82;21246;-79
2022/06/26 01:58:13;;;;;;;10.43;4.40;;;;;;;16.89;100.00;99934.86;1743148;81;21272;-77
2022/06/26 02:01:22;;;;;;;13.45;3.92;;;;;;;17.00;100.00;99941.01;1742301;82;21206;-78
2022/06/26 02:04:26;;;;;;;13.40;4.20;;;;;;;17.11;100.00;99936.10;1742918;82;21226;-79
2022/06/26 02:07:32;;;;;;;10.88;3.67;;;;;;;17.20;100.00;99946.88;1743738;82;21209;-79
2022/06/26 02:14:01;;;;;;;12.80;3.67;;;;;;;17.19;100.00;99949.34;1743243;82;21181;-78
2022/06/26 02:17:11;;;;;;;10.55;3.22;;;;;;;17.13;100.00;99943.34;1744163;82;21206;-78
2022/06/26 02:20:18;;;;;;;8.85;3.80;;;;;;;17.11;100.00;99951.30;1743753;82;21238;-78
2022/06/26 02:23:26;;;;;;;8.90;3.72;;;;;;;17.11;100.00;99945.77;1743615;82;21230;-78
2022/06/26 02:26:32;;;;;;;7.17;2.87;;;;;;;17.15;100.00;99952.24;1742652;82;21226;-77
2022/06/26 02:29:38;;;;;;;5.72;2.98;;;;;;;17.15;100.00;99950.86;1742370;82;21198;-78
2022/06/26 02:32:46;;;;;;;10.40;3.67;;;;;;;17.16;100.00;99954.77;1743593;82;21194;-78
2022/06/26 02:35:54;;;;;;;10.58;4.03;;;;;;;17.18;100.00;99959.55;1743731;82;21749;-78
2022/06/26 02:38:59;;;;;;;15.32;3.65;;;;;;;17.21;100.00;99966.52;1743759;82;21205;-78
2022/06/26 02:42:05;;;;;;;7.58;3.22;;;;;;;17.23;100.00;99976.83;1743285;81;21233;-78
2022/06/26 02:45:12;;;;;;;5.55;3.27;;;;;;;17.23;100.00;99979.59;1740910;82;21547;-78
2022/06/26 02:48:17;;;;;;;13.45;4.05;;;;;;;17.25;100.00;99987.95;1743784;82;21345;-78
2022/06/26 02:51:24;;;;;;;8.78;3.25;;;;;;;17.38;100.00;100002.18;1743574;82;21190;-78
2022/06/26 02:54:30;;;;;;;10.35;3.15;;;;;;;17.73;100.00;99996.92;1743501;82;21186;-78
2022/06/26 02:57:30;;;;;;;7.95;3.52;;;;;;;18.30;100.00;99992.47;1743112;81;21233;-78
2022/06/26 03:00:37;;;;;;;8.43;3.25;;;;;;;18.95;100.00;99999.48;1743852;82;21195;-80
2022/06/26 03:03:43;;;;;;;16.37;3.35;;;;;;;19.57;100.00;99991.56;1743677;82;21488;-80
2022/06/26 03:06:49;;;;;;;10.55;3.12;;;;;;;19.96;97.32;99991.88;1743715;82;21202;-80
2022/06/26 03:09:54;;;;;;;12.23;3.15;;;;;;;19.99;94.02;99996.91;1742305;82;21205;-80
2022/06/26 03:13:00;;;;;;;11.83;3.10;;;;;;;19.87;92.63;99996.96;1742756;81;21229;-80
2022/06/26 03:16:08;;;;;;;7.50;2.65;;;;;;;19.74;92.82;99996.38;1742517;82;21193;-80
2022/06/26 03:19:14;;;;;;;7.35;2.65;;;;;;;19.59;93.05;99992.70;1742353;82;21182;-80
2022/06/26 03:22:20;;;;;;;5.25;2.90;;;;;;;19.49;93.07;99992.47;1743719;82;21186;-80
2022/06/26 03:25:28;;;;;;;13.50;3.67;;;;;;;19.33;92.95;99991.25;1743010;82;21237;-80
2022/06/26 03:28:32;;;;;;;13.88;3.30;;;;;;;19.21;93.67;99989.05;1742508;81;21225;-78
2022/06/26 03:31:38;;;;;;;11.28;2.95;;;;;;;19.07;93.80;99985.66;1743873;82;21238;-77
2022/06/26 03:34:45;;;;;;;8.25;3.20;;;;;;;18.92;94.52;99990.83;1742304;82;21202;-80
2022/06/26 03:37:51;;;;;;;6.42;2.30;;;;;;;18.81;95.74;99999.40;1742270;82;21796;-80
2022/06/26 03:40:59;;;;;;;8.23;3.02;;;;;;;18.78;96.01;99999.35;1742180;82;21241;-80
2022/06/26 03:44:06;;;;;;;8.85;2.58;;;;;;;18.78;95.66;99994.36;1743151;81;21229;-80
2022/06/26 03:47:13;;;;;;;7.97;2.72;;;;;;;18.78;95.76;100004.05;1740713;82;21265;-79
2022/06/26 03:50:20;;;;;;;4.80;2.50;;;;;;;18.84;95.61;100003.09;1743675;82;21214;-80
2022/06/26 03:53:26;;;;;;;5.20;2.45;;;;;;;18.90;95.29;99999.36;1743749;82;21182;-80
2022/06/26 03:56:34;;;;;;;3.55;2.62;;;;;;;18.95;94.92;99993.10;1742521;82;21186;-80
2022/06/26 03:59:42;;;;;;;8.20;2.75;;;;;;;19.00;94.62;99990.45;1742391;81;21549;-80
2022/06/26 04:02:58;;;;;;;3.22;2.40;;;;;;;19.02;94.28;100004.39;1743625;82;21741;-79
2022/06/26 04:06:03;;;;;;;7.30;2.05;;;;;;;19.07;94.84;100008.67;1743209;82;21759;-79
2022/06/26 04:09:10;;;;;;;6.97;2.80;;;;;;;19.12;95.11;99997.70;1743830;82;21776;-79
2022/06/26 04:12:17;;;;;;;3.77;2.52;;;;;;;19.18;94.48;99997.83;1743919;82;21226;-79
2022/06/26 04:15:23;;;;;;;7.12;2.30;;;;;;;19.22;94.34;99993.50;1743390;82;21799;-79
2022/06/26 04:18:29;;;;;;;6.80;2.20;;;;;;;19.30;94.06;99988.98;1743729;82;21182;-78
2022/06/26 04:21:37;;;;;;;7.33;3.05;;;;;;;19.37;92.74;99995.23;1743664;82;21245;-78
2022/06/26 04:24:44;;;;;;;4.00;2.40;;;;;;;19.46;92.47;99997.95;1743882;82;21261;-78
2022/06/26 04:27:51;;;;;;;6.05;2.60;;;;;;;19.52;91.15;99996.97;1742264;82;21201;-78
2022/06/26 04:30:59;;;;;;;5.42;2.25;;;;;;;19.61;90.55;100003.03;1743787;82;21190;-78
2022/06/26 04:34:04;;;;;;;6.78;1.87;;;;;;;19.68;89.40;100002.37;1743757;82;21194;-78
2022/06/26 04:37:11;;;;;;;6.60;2.25;;;;;;;19.79;89.32;100010.36;1742347;82;21257;-78
2022/06/26 04:40:19;;;;;;;5.42;2.33;;;;;;;19.95;88.78;100009.63;1743537;82;21257;-78
2022/06/26 04:43:25;;;;;;;4.78;2.20;;;;;;;20.26;87.92;100013.02;1743430;81;21230;-78
2022/06/26 04:46:29;;;;;;;2.90;1.65;;;;;;;20.63;86.43;100017.11;1742122;82;21242;-78
2022/06/26 04:49:34;;;;;;;3.00;1.90;;;;;;;20.99;84.15;100021.09;1746335;82;21206;-79
2022/06/26 04:52:39;;;;;;;6.25;2.10;;;;;;;21.32;82.47;100024.45;1745177;82;21205;-78
2022/06/26 04:55:48;;;;;;;3.70;1.92;;;;;;;21.59;79.82;100024.56;1747630;82;21729;-78
2022/06/26 04:58:56;;;;;;;3.00;1.85;;;;;;;21.69;77.62;100025.58;1745976;81;21202;-78
2022/06/26 05:02:04;;;;;;;3.65;1.90;;;;;;;21.79;74.53;100021.25;1746603;82;21198;-78
2022/06/26 05:05:20;;;;;;;3.50;1.77;;;;;;;21.82;73.60;100028.52;1745131;82;21198;-78
2022/06/26 05:08:30;;;;;;;5.12;1.95;;;;;;;21.88;72.63;100023.89;1744710;82;22615;-78
2022/06/26 05:11:37;;;;;;;6.37;1.70;;;;;;;21.96;72.44;100020.63;1716054;83;21522;-78
2022/06/26 05:14:42;;;;;;;8.25;2.10;;;;;;;22.10;71.59;100015.52;1745891;81;21780;-79
2022/06/26 05:17:49;;;;;;;9.08;1.72;;;;;;;22.22;69.78;100024.63;1714409;83;21220;-78
2022/06/26 05:20:55;;;;;;;4.35;1.80;;;;;;;22.25;68.51;100021.86;1746511;82;21205;-78
2022/06/26 05:24:02;;;;;;;3.87;2.00;;;;;;;22.24;68.91;100020.18;1716109;83;21200;-79
2022/06/26 05:27:11;;;;;;;5.28;2.02;;;;;;;22.34;69.13;100021.69;1746801;82;21218;-78
2022/06/26 05:30:18;;;;;;;3.35;2.00;;;;;;;22.47;68.55;100026.86;1715265;82;21283;-78
2022/06/26 05:33:27;;;;;;;11.63;2.10;;;;;;;22.56;68.36;100021.11;1746641;82;21190;-78
2022/06/26 05:36:34;;;;;;;4.75;1.80;;;;;;;22.63;66.88;100024.55;1715906;83;21208;-78
2022/06/26 05:39:40;;;;;;;7.08;2.12;;;;;;;22.69;66.40;100020.70;1746564;82;21246;-78
2022/06/26 05:42:46;;;;;;;3.75;2.35;;;;;;;22.73;66.54;100020.19;1716198;83;21197;-78
2022/06/26 05:45:52;;;;;;;6.25;2.35;;;;;;;22.80;67.22;100020.80;1745569;81;21253;-79
2022/06/26 05:49:02;;;;;;;;;;;;;;;22.93;66.86;100025.98;1731877;82;21764;-78
2022/06/26 05:52:18;;;;;;;2.40;1.55;;;;;;;23.05;66.55;100028.58;1685626;82;20234;-78
2022/06/26 05:55:41;;;;;;;7.70;2.02;;;;;;;23.17;65.98;100030.66;1715738;83;21204;-78
2022/06/26 05:59:03;;;;;;;6.67;1.80;;;;;;;23.28;65.86;100032.97;1696395;83;21303;-78
2022/06/26 06:02:25;;;;;;;2.35;1.70;;;;;;;23.34;64.61;100028.57;1715753;83;21236;-78
2022/06/26 06:05:31;;;;;;;10.15;2.08;;;;;;;23.49;64.62;100022.81;1715650;83;21760;-78
2022/06/26 06:08:36;;;;;;;3.80;2.10;;;;;;;23.55;63.96;100030.94;1714508;83;21767;-78
2022/06/26 06:11:42;;;;;;;6.25;1.67;;;;;;;23.51;64.54;100037.33;1715674;83;21514;-79
2022/06/26 06:14:47;;;;;;;4.97;1.50;;;;;;;23.57;63.85;100020.89;1715714;82;22075;-78
2022/06/26 06:17:55;;;;;;;3.27;2.12;;;;;;;23.64;62.83;100029.36;1715066;83;21846;-78
2022/06/26 06:21:00;;;;;;;5.58;1.90;;;;;;;23.74;61.72;100036.96;1715541;83;21256;-79
2022/06/26 06:24:07;;;;;;;9.25;2.08;;;;;;;23.75;62.75;100028.86;1715655;83;21177;-79
2022/06/26 06:27:14;;;;;;;7.25;1.95;;;;;;;23.83;64.13;100037.30;1715404;83;21234;-78
2022/06/26 06:30:23;;;;;;;7.40;1.75;;;;;;;23.97;63.41;100047.70;1714539;83;21232;-78
2022/06/26 06:33:28;;;;;;;5.95;2.00;;;;;;;24.06;61.28;100062.00;1715649;83;21181;-78
2022/06/26 06:36:34;;;;;;;5.00;1.90;;;;;;;24.10;61.87;100063.15;1715692;83;21784;-78
2022/06/26 06:39:40;;;;;;;4.30;1.80;;;;;;;24.11;61.52;100059.23;1715708;83;21181;-78
2022/06/26 06:42:46;;;;;;;1.95;1.77;;;;;;;24.10;61.23;100050.58;1715610;83;21236;-78
2022/06/26 06:45:52;;;;;;;5.05;1.70;;;;;;;24.28;62.96;100049.80;1715096;82;21236;-78
2022/06/26 06:48:59;;;;;;;4.28;1.75;;;;;;;24.48;61.90;100052.16;1713605;83;21237;-78
2022/06/26 06:52:15;;;;;;;5.08;1.98;;;;;;;24.57;60.05;100046.04;1696928;84;21199;-78
2022/06/26 06:55:20;;;;;;;6.20;1.82;;;;;;;24.65;58.12;100052.47;1696864;84;21176;-78
2022/06/26 06:58:26;;;;;;;2.83;1.60;;;;;;;24.70;56.35;100063.67;1696142;83;21219;-78
2022/06/26 07:01:32;;;;;;;6.17;2.17;;;;;;;24.66;56.40;100045.23;1696270;84;21227;-78
2022/06/26 07:04:38;;;;;;;4.80;1.80;;;;;;;24.64;56.19;100048.84;1696989;84;21794;-78
2022/06/26 07:07:46;;;;;;;4.40;1.77;;;;;;;24.50;57.34;100051.88;1696682;84;21283;-78
2022/06/26 07:10:53;;;;;;;2.75;1.57;;;;;;;24.40;58.91;100047.65;1696820;84;21796;-78
2022/06/26 07:14:00;;;;;;;5.65;1.70;;;;;;;24.36;57.14;100050.67;1696787;84;21196;-78
2022/06/26 07:17:08;;;;;;;2.33;1.50;;;;;;;24.48;56.89;100045.73;1696260;83;21211;-78
2022/06/26 07:20:16;;;;;;;1.90;1.52;;;;;;;24.71;54.34;100045.80;1697155;84;21160;-78
2022/06/26 07:23:22;;;;;;;6.20;1.50;;;;;;;24.88;54.03;100059.52;1697272;84;21199;-78
2022/06/26 07:26:31;;;;;;;;;;;;;;;24.98;52.85;100046.94;1698047;83;21215;-78
2022/06/26 07:29:37;;;;;;;4.90;1.52;;;;;;;25.03;52.46;100037.19;1695627;84;20203;-78
2022/06/26 07:32:46;;;;;;;2.77;1.40;;;;;;;25.05;52.69;100025.70;1695726;83;21765;-78
2022/06/26 07:35:52;;;;;;;3.15;1.50;;;;;;;25.13;53.10;100033.02;1696870;84;21195;-78
2022/06/26 07:39:01;;;;;;;4.95;1.60;;;;;;;25.23;51.34;100034.41;1696255;84;21247;-78
2022/06/26 07:42:08;;;;;;;4.83;1.50;;;;;;;25.35;50.37;100042.52;1695566;84;21183;-78
2022/06/26 07:45:16;;;;;;;5.62;1.52;;;;;;;25.45;50.84;100041.66;1695562;84;21247;-78
2022/06/26 07:48:25;;;;;;;5.10;1.82;;;;;;;25.44;50.92;100039.99;1696600;84;21540;-78
2022/06/26 07:51:31;;;;;;;5.53;1.67;;;;;;;25.46;51.49;100032.17;1727263;82;21257;-79
2022/06/26 07:54:37;;;;;;;2.62;1.52;;;;;;;25.61;51.12;100036.91;1742357;82;21256;-79
2022/06/26 07:57:43;;;;;;;9.10;1.87;;;;;;;25.68;49.62;100041.08;1743750;81;21234;-79
2022/06/26 08:00:49;;;;;;;5.30;1.60;;;;;;;25.76;49.91;100041.67;1743619;82;21197;-79
2022/06/26 08:03:57;;;;;;;5.00;1.40;;;;;;;25.85;49.97;100045.57;1743573;82;21202;-78
2022/06/26 08:07:02;;;;;;;3.02;1.70;;;;;;;25.95;48.54;100039.94;1742124;82;21202;-78
2022/06/26 08:10:09;;;;;;;5.22;1.67;;;;;;;25.99;49.77;100038.25;1742324;82;21241;-79
2022/06/26 08:13:15;;;;;;;2.12;1.30;;;;;;;26.05;49.21;100031.49;1743618;82;21206;-79
2022/06/26 08:16:23;;;;;;;6.80;1.55;;;;;;;26.12;50.08;100032.05;1743605;82;21753;-79
2022/06/26 08:19:29;;;;;;;2.12;1.30;;;;;;;26.12;48.72;100032.05;1743007;82;21202;-79
2022/06/26 08:22:34;;;;;;;3.33;1.85;;;;;;;26.03;49.18;100036.56;1743642;82;21249;-79
2022/06/26 08:25:40;;;;;;;4.55;1.95;;;;;;;25.99;49.20;100043.85;1743481;82;21198;-79
2022/06/26 08:28:46;;;;;;;2.30;1.45;;;;;;;26.01;49.59;100041.59;1743566;82;21234;-79
2022/06/26 08:31:51;;;;;;;10.18;1.82;;;;;;;26.00;51.21;100033.75;1743669;81;21194;-79
2022/06/26 08:34:56;;;;;;;3.40;1.98;;;;;;;26.13;50.58;100027.27;1743524;82;21850;-79
2022/06/26 08:38:06;;;;;;;3.22;2.02;;;;;;;26.27;50.70;100035.34;1743599;82;21174;-79
2022/06/26 08:41:12;;;;;;;8.70;1.80;;;;;;;26.30;50.91;100038.12;1743634;82;21836;-78
2022/06/26 08:44:18;;;;;;;3.22;2.05;;;;;;;26.39;51.51;100038.62;1743604;82;21269;-78
2022/06/26 08:47:25;;;;;;;5.70;1.85;;;;;;;26.47;51.75;100037.23;1743478;82;21261;-78
2022/06/26 08:50:31;;;;;;;5.78;1.98;;;;;;;26.56;52.01;100033.27;1743821;82;21769;-78
2022/06/26 08:53:37;;;;;;;10.98;1.90;;;;;;;26.60;50.81;100035.20;1746501;82;21237;-78
2022/06/26 08:56:42;;;;;;;2.27;1.62;;;;;;;26.59;50.99;100028.49;1746534;82;21238;-79
2022/06/26 08:59:47;;;;;;;2.95;1.60;;;;;;;26.68;50.94;100020.58;1746390;82;21825;-78
2022/06/26 09:02:53;;;;;;;2.52;1.70;;;;;;;26.81;50.29;100028.89;1746027;81;21229;-78
2022/06/26 09:05:59;;;;;;;3.55;1.60;;;;;;;26.84;48.84;100027.48;1746659;82;21178;-78
2022/06/26 09:09:07;;;;;;;3.35;1.20;;;;;;;26.80;48.79;100027.22;1746481;82;21210;-78
2022/06/26 09:12:12;;;;;;;6.75;2.00;;;;;;;26.80;50.29;100023.58;1746687;82;21201;-78
2022/06/26 09:15:26;;;;;;;5.05;1.50;;;;;;;26.80;49.68;100017.97;1746715;82;21206;-78
2022/06/26 09:18:32;;;;;;;4.47;2.00;;;;;;;26.73;48.85;100018.30;1746078;81;21233;-78
2022/06/26 09:21:38;;;;;;;5.97;1.40;;;;;;;26.69;49.31;100016.64;1745118;82;21206;-79
2022/06/26 09:24:44;;;;;;;4.47;1.50;;;;;;;26.67;49.97;100021.69;1746613;82;21229;-79
2022/06/26 09:27:50;;;;;;;10.38;1.82;;;;;;;26.74;49.84;100016.61;1746621;82;21197;-79
2022/06/26 09:31:06;;;;;;;4.53;1.62;;;;;;;26.80;49.35;100006.75;1745671;82;21209;-79
2022/06/26 09:34:12;;;;;;;5.08;1.72;;;;;;;26.73;49.21;100009.89;1745836;81;21305;-79
2022/06/26 09:37:19;;;;;;;2.90;1.30;;;;;;;26.65;49.18;100014.14;1720457;82;21236;-79
2022/06/26 09:40:27;;;;;;;3.27;1.52;;;;;;;26.61;49.42;100006.02;1685210;84;21378;-78
2022/06/26 09:43:40;;;;;;;7.00;1.57;;;;;;;26.55;48.86;100010.00;1715389;83;21918;-78
2022/06/26 09:46:46;;;;;;;5.92;1.40;;;;;;;26.56;49.38;100010.83;1687827;85;21180;-78
2022/06/26 09:49:53;;;;;;;3.77;1.60;;;;;;;26.63;49.02;100007.99;1716986;82;21786;-79
2022/06/26 09:52:59;;;;;;;2.83;1.62;;;;;;;26.78;50.13;100024.45;1686322;85;21228;-78
2022/06/26 09:56:06;;;;;;;5.72;1.60;;;;;;;26.86;48.75;100016.23;1716103;83;21735;-78
2022/06/26 09:59:12;;;;;;;7.75;1.70;;;;;;;26.93;48.44;100007.50;1686213;85;21248;-78
2022/06/26 10:09:15;;;;;;;3.17;1.47;;;;;;;27.23;46.55;100000.25;1702280;83;21193;-79
2022/06/26 10:12:20;;;;;;;1.30;1.20;;;;;;;27.41;47.00;99998.69;1686243;85;21752;-79
2022/06/26 10:15:26;;;;;;;4.85;1.70;;;;;;;27.41;45.71;100006.28;1716685;83;21200;-78
2022/06/26 10:18:44;;;;;;;3.33;1.40;;;;;;;27.34;46.03;99992.59;1716025;82;21189;-79
2022/06/26 10:21:50;;;;;;;5.75;1.50;;;;;;;27.37;45.54;99989.17;1714310;83;21252;-79
2022/06/26 10:25:02;;;;;;;4.25;1.70;;;;;;;27.53;45.67;99994.66;1746119;82;21740;-79
2022/06/26 10:28:09;;;;;;;4.25;1.55;;;;;;;27.57;45.18;99996.59;1745098;82;21257;-79
2022/06/26 10:31:15;;;;;;;5.25;1.37;;;;;;;27.42;45.31;100016.37;1745905;82;21232;-79
2022/06/26 10:34:31;;;;;;;5.35;1.67;;;;;;;27.20;47.10;99995.81;1746344;82;21251;-79
2022/06/26 10:37:53;;;;;;;3.42;1.32;;;;;;;27.26;45.99;100005.86;1748836;80;21206;-79
2022/06/26 10:44:24;;;;;;;3.25;1.62;;;;;;;27.60;46.07;99985.30;1708128;83;21222;-80
2022/06/26 10:47:30;;;;;;;9.58;1.50;;;;;;;27.81;44.14;99995.77;1744474;82;21257;-78
2022/06/26 10:50:47;;;;;;;2.45;1.60;;;;;;;27.90;43.96;99982.73;1714339;83;21244;-80
2022/06/26 10:54:35;;;;;;;4.08;1.37;;;;;;;28.14;44.66;99976.55;1916498;74;22196;-78
2022/06/26 10:57:43;;;;;;;4.10;1.57;;;;;;;28.22;44.08;99975.86;1886805;76;21778;-79
2022/06/26 11:00:49;;;;;;;3.27;1.50;;;;;;;28.21;43.73;99996.69;1846260;77;22364;-80
2022/06/26 11:03:55;;;;;;;4.60;1.50;;;;;;;28.07;43.51;99973.26;1852877;77;21188;-78
2022/06/26 11:07:01;;;;;;;7.60;1.47;;;;;;;27.99;44.27;99973.91;1854879;77;21177;-79
2022/06/26 11:10:07;;;;;;;3.35;1.50;;;;;;;27.99;44.27;99973.91;1845357;77;21287;-78
2022/06/26 11:13:23;;;;;;;5.75;1.25;;;;;;;28.17;44.22;99966.66;1843598;76;22239;-78
2022/06/26 11:16:45;;;;;;;4.47;1.45;;;;;;;28.28;44.39;99978.89;1817440;77;21129;-78
2022/06/26 11:23:30;;;;;;;4.40;1.60;;;;;;;28.52;43.43;99971.00;1792809;77;21220;-78
2022/06/26 11:26:35;;;;;;;2.98;1.57;;;;;;;28.61;43.32;99967.77;1822444;77;21790;-78
2022/06/26 11:29:42;;;;;;;3.05;1.30;;;;;;;28.70;41.40;99960.31;1800905;79;21200;-79
2022/06/26 11:32:41;;;;;;;1.90;1.30;;;;;;;28.70;41.40;99960.31;1825205;77;21192;-78
2022/06/26 11:35:34;;;;;;;7.37;1.37;;;;;;;28.61;42.80;99966.36;1779673;79;21185;-78
2022/06/26 11:38:39;;;;;;;5.50;1.45;;;;;;;28.62;41.80;99974.23;1749811;82;22572;-78
2022/06/26 11:41:45;;;;;;;3.05;1.75;;;;;;;28.57;41.91;99968.11;1779321;80;21462;-78
2022/06/26 11:45:00;;;;;;;5.95;1.40;;;;;;;28.52;41.96;99961.98;1727164;82;21256;-78
2022/06/26 11:48:06;;;;;;;4.80;1.22;;;;;;;28.42;42.68;99960.73;1787792;79;21236;-79
2022/06/26 11:51:16;;;;;;;7.33;1.60;;;;;;;28.28;42.78;99969.63;1766050;80;21182;-79
2022/06/26 11:54:31;;;;;;;4.40;1.50;;;;;;;28.02;43.40;99976.14;1757962;81;21253;-79
2022/06/26 11:57:37;;;;;;;2.47;1.50;;;;;;;27.64;44.61;99967.56;1761715;80;21204;-79
2022/06/26 12:01:21;;;;;;;3.15;1.67;;;;;;;27.64;44.61;99967.56;1728389;81;21206;-78
2022/06/26 12:04:27;;;;;;;1.55;1.30;;;;;;;27.52;45.21;99967.11;1758299;81;21819;-79
2022/06/26 12:07:34;;;;;;;3.65;1.60;;;;;;;27.47;45.57;99972.78;1758897;81;21264;-78
2022/06/26 12:10:42;;;;;;;5.45;1.52;;;;;;;27.42;45.71;99965.25;1758660;81;21877;-81
2022/06/26 12:13:49;;;;;;;5.22;1.37;;;;;;;27.74;45.00;99967.47;1746491;81;21764;-79
2022/06/26 12:17:07;;;;;;;6.65;1.87;;;;;;;27.74;45.00;99967.47;1741679;82;21202;-79
2022/06/26 12:20:15;;;;;;;3.45;1.52;;;;;;;27.90;44.10;99957.44;1743561;82;21196;-79
2022/06/26 12:23:22;;;;;;;6.62;1.90;;;;;;;28.03;44.44;99949.13;1741546;82;21197;-79
2022/06/26 12:26:29;;;;;;;5.75;1.50;;;;;;;28.19;44.64;99949.77;1742009;82;21201;-79
2022/06/26 12:29:37;;;;;;;4.33;1.80;;;;;;;28.28;43.35;99955.56;1801279;79;22438;-79
2022/06/26 12:32:42;;;;;;;5.00;1.80;;;;;;;28.25;43.07;99946.31;1800023;79;21221;-79
2022/06/26 12:35:49;;;;;;;7.00;1.77;;;;;;;28.27;43.00;99941.21;1800444;79;21193;-79
2022/06/26 12:38:56;;;;;;;7.05;1.87;;;;;;;28.35;43.40;99941.15;1800250;79;21185;-78
2022/06/26 12:42:03;;;;;;;7.42;1.77;;;;;;;28.48;42.96;99948.27;1779659;79;21295;-78
2022/06/26 12:45:13;;;;;;;8.03;2.00;;;;;;;28.50;43.48;99946.54;1798600;79;21157;-78
2022/06/26 12:48:19;;;;;;;2.75;1.67;;;;;;;28.38;44.50;99948.41;1802535;79;21181;-78
2022/06/26 12:51:26;;;;;;;7.20;2.12;;;;;;;28.21;44.90;99955.92;1802427;79;21181;-78
2022/06/26 12:54:32;;;;;;;5.80;1.77;;;;;;;28.03;44.77;99951.93;1802531;79;21209;-78
2022/06/26 12:57:38;;;;;;;6.92;2.30;;;;;;;27.81;44.47;99946.05;1800572;79;21272;-78
2022/06/26 13:00:37;;;;;;;6.47;2.10;;;;;;;27.68;44.44;99946.73;1800339;79;21240;-78
2022/06/26 13:03:30;;;;;;;4.65;2.20;;;;;;;27.61;44.83;99953.27;1801795;79;21176;-78
2022/06/26 13:10:17;;;;;;;4.60;2.20;;;;;;;27.61;44.73;99928.81;1802695;79;22543;-78
2022/06/26 13:13:23;;;;;;;5.03;2.20;;;;;;;27.61;44.73;99928.81;1801896;79;21251;-78
2022/06/26 13:16:31;;;;;;;5.87;2.50;;;;;;;27.60;45.33;99936.98;1809944;79;21177;-78
2022/06/26 13:19:37;;;;;;;6.50;3.00;;;;;;;27.66;45.45;99934.94;1742041;82;21206;-78
2022/06/26 13:22:43;;;;;;;7.62;3.17;;;;;;;27.67;45.52;99944.50;1739931;82;21252;-78
2022/06/26 13:25:49;;;;;;;14.78;3.47;;;;;;;27.62;45.43;99951.58;1739796;82;21342;-78
2022/06/26 13:28:56;;;;;;;7.25;3.30;;;;;;;27.54;45.39;99941.56;1738843;82;21827;-78
2022/06/26 13:32:02;;;;;;;14.35;3.80;;;;;;;27.48;45.39;99945.00;1741100;82;21426;-78
2022/06/26 13:35:08;;;;;;;10.28;3.55;;;;;;;27.50;46.22;99948.33;1739865;82;21256;-78
2022/06/26 13:38:14;;;;;;;8.80;3.72;;;;;;;27.58;45.94;99951.06;1741947;82;21177;-78
2022/06/26 13:41:19;;;;;;;7.05;3.12;;;;;;;27.60;45.28;99954.41;1741998;82;21268;-79
2022/06/26 13:44:24;;;;;;;12.07;3.75;;;;;;;27.63;45.32;99956.63;1718362;82;21234;-78
2022/06/26 13:47:30;;;;;;;11.95;3.10;;;;;;;27.62;45.52;99961.95;1742016;82;21736;-77
2022/06/26 13:50:37;;;;;;;5.10;2.30;;;;;;;27.62;45.52;99961.95;1742129;82;21173;-78
2022/06/26 13:53:43;;;;;;;9.40;3.20;;;;;;;27.61;45.80;99970.95;1740269;82;21212;-77
2022/06/26 13:56:50;;;;;;;15.28;2.87;;;;;;;27.59;45.75;99966.21;1741886;82;21743;-78
2022/06/26 13:59:58;;;;;;;14.45;2.95;;;;;;;27.57;45.15;99976.92;1771365;81;21231;-77
2022/06/26 14:03:03;;;;;;;6.20;2.45;;;;;;;27.56;45.59;99971.01;1739870;82;21193;-78
2022/06/26 14:06:11;;;;;;;9.38;2.70;;;;;;;27.51;45.81;99967.69;1741983;82;21185;-78
2022/06/26 14:09:17;;;;;;;11.85;3.22;;;;;;;27.46;46.29;99974.77;1741905;82;21252;-78
2022/06/26 14:12:22;;;;;;;10.70;3.08;;;;;;;27.47;46.84;99961.55;1741663;82;21185;-78
2022/06/26 14:15:29;;;;;;;7.80;2.33;;;;;;;27.43;46.78;99966.95;1738363;82;21228;-78
2022/06/26 14:18:36;;;;;;;8.60;2.95;;;;;;;27.42;46.58;99974.25;1741561;82;21193;-78
2022/06/26 14:21:42;;;;;;;11.20;2.83;;;;;;;27.38;46.22;99965.57;1739759;82;21197;-78
2022/06/26 14:28:12;;;;;;;10.50;2.72;;;;;;;27.40;46.56;99968.10;1741827;82;21244;-77
2022/06/26 14:31:18;;;;;;;8.73;2.40;;;;;;;27.45;46.64;99963.84;1740372;82;21213;-78
2022/06/26 14:34:25;;;;;;;5.75;2.87;;;;;;;27.48;46.33;99968.88;1739606;82;21291;-78
2022/06/26 14:37:31;;;;;;;14.43;3.00;;;;;;;27.45;45.80;99970.28;1741205;82;21533;-78
2022/06/26 14:40:30;;;;;;;7.62;2.62;;;;;;;27.43;45.92;99970.30;1739169;82;21256;-78
2022/06/26 14:43:23;;;;;;;6.35;2.15;;;;;;;27.37;46.01;99968.11;1740631;82;21204;-78
2022/06/26 14:46:31;;;;;;;3.62;2.33;;;;;;;27.37;46.01;99968.11;1740843;82;21345;-78
2022/06/26 14:49:39;;;;;;;10.95;2.98;;;;;;;27.39;46.17;99973.45;1741133;82;21194;-78
2022/06/26 14:52:46;;;;;;;12.05;2.58;;;;;;;27.38;46.10;99969.78;1741763;82;21234;-78
2022/06/26 14:55:52;;;;;;;6.70;2.45;;;;;;;27.37;45.55;99979.91;1740388;82;21301;-78